Time;durP1;ratioP1;P1;durP2;ratioP2;P2;SDS_P1;SDS_P2;PMS_P1;PMS_P2;Temp;Humidity;BMP_temperature;BMP_pressure;BME280_temperature;BME280_humidity;BME280_pressure;Samples;Min_cycle;Max_cycle;Signal;HPM_P1;HPM_P2
2023/04/12 00:00:03;;;;;;;;;;;;;;;;;;5085960;28;19967;-63
2023/04/12 00:02:29;;;;;;;;;;;;;;;;;;5088827;28;19963;-63
2023/04/12 00:04:56;;;;;;;;;;;;;;;;;;5059887;28;20400;-63
2023/04/12 00:07:22;;;;;;;;;;;;;;;;;;5085761;28;19935;-63
2023/04/12 00:09:48;;;;;;;;;;;;;;;;;;5091078;28;19920;-64
2023/04/12 00:12:16;;;;;;;;;;;;;;;;;;5073859;28;20356;-63
2023/04/12 00:14:42;;;;;;;;;;;;;;;;;;5086176;28;19920;-62
2023/04/12 00:17:08;;;;;;;;;;;;;;;;;;5079827;28;20001;-62
2023/04/12 00:19:34;;;;;;;;;;;;;;;;;;5091160;28;19993;-63
2023/04/12 00:22:00;;;;;;;;;;;;;;;;;;5075568;28;20560;-63
2023/04/12 00:24:26;;;;;;;;;;;;;;;;;;5092021;28;19924;-63
2023/04/12 00:26:52;;;;;;;;;;;;;;;;;;5090418;28;19931;-63
2023/04/12 00:29:18;;;;;;;;;;;;;;;;;;5091867;28;19924;-63
2023/04/12 00:31:43;;;;;;;;;;;;;;;;;;5092590;28;20060;-63
2023/04/12 00:34:09;;;;;;;;;;;;;;;;;;5083593;28;20230;-63
2023/04/12 00:36:35;;;;;;;;;;;;;;;;;;5092118;28;19920;-63
2023/04/12 00:39:01;;;;;;;;;;;;;;;;;;5080124;28;20281;-63
2023/04/12 00:41:27;;;;;;;;;;;;;;;;;;5090554;28;19923;-63
2023/04/12 00:43:53;;;;;;;;;;;;;;;;;;5059283;28;20398;-63
2023/04/12 00:46:19;;;;;;;;;;;;;;;;;;5086163;28;19921;-63
2023/04/12 00:48:47;;;;;;;;;;;;;;;;;;5091125;28;19926;-63
2023/04/12 00:51:12;;;;;;;;;;;;;;;;;;5092418;28;19928;-63
2023/04/12 00:53:38;;;;;;;;;;;;;;;;;;5076778;28;20345;-63
2023/04/12 00:56:04;;;;;;;;;;;;;;;;;;5072458;28;19924;-64
2023/04/12 00:58:30;;;;;;;;;;;;;;;;;;5092534;28;19943;-63
2023/04/12 01:00:56;;;;;;;;;;;;;;;;;;5074325;28;19966;-64
2023/04/12 01:03:26;;;;;;;;;;;;;;;;;;5062663;28;19924;-64
2023/04/12 01:05:52;;;;;;;;;;;;;;;;;;5089217;28;19920;-63
2023/04/12 01:08:18;;;;;;;;;;;;;;;;;;5075078;28;19920;-64
2023/04/12 01:10:44;;;;;;;;;;;;;;;;;;5093922;28;20446;-63
2023/04/12 01:13:10;;;;;;;;;;;;;;;;;;5074169;28;20037;-63
2023/04/12 01:15:36;;;;;;;;;;;;;;;;;;5094206;28;19920;-63
2023/04/12 01:18:02;;;;;;;;;;;;;;;;;;5091083;28;19924;-63
2023/04/12 01:20:28;;;;;;;;;;;;;;;;;;5074073;28;19931;-63
2023/04/12 01:22:54;;;;;;;;;;;;;;;;;;5068647;28;19925;-63
2023/04/12 01:25:22;;;;;;;;;;;;;;;;;;5069019;28;19932;-63
2023/04/12 01:27:48;;;;;;;;;;;;;;;;;;5067645;28;19924;-64
2023/04/12 01:30:14;;;;;;;;;;;;;;;;;;5068005;28;19920;-67
2023/04/12 01:32:40;;;;;;;;;;;;;;;;;;5074681;28;19920;-64
2023/04/12 01:35:07;;;;;;;;;;;;;;;;;;5074766;28;19921;-63
2023/04/12 01:37:33;;;;;;;;;;;;;;;;;;5075094;28;19920;-64
2023/04/12 01:39:59;;;;;;;;;;;;;;;;;;5075279;28;19999;-62
2023/04/12 01:42:25;;;;;;;;;;;;;;;;;;5075106;28;20396;-62
2023/04/12 01:44:51;;;;;;;;;;;;;;;;;;5068344;28;20297;-63
2023/04/12 01:47:17;;;;;;;;;;;;;;;;;;5073012;28;19967;-63
2023/04/12 01:49:42;;;;;;;;;;;;;;;;;;5056612;28;19927;-63
2023/04/12 01:52:08;;;;;;;;;;;;;;;;;;5072625;28;19921;-64
2023/04/12 01:54:34;;;;;;;;;;;;;;;;;;5074433;28;19920;-63
2023/04/12 01:57:00;;;;;;;;;;;;;;;;;;5073121;28;19920;-63
2023/04/12 01:59:26;;;;;;;;;;;;;;;;;;5068521;28;19928;-63
2023/04/12 02:01:52;;;;;;;;;;;;;;;;;;5073058;28;19931;-63
2023/04/12 02:04:18;;;;;;;;;;;;;;;;;;5071040;28;19928;-63
2023/04/12 02:06:44;;;;;;;;;;;;;;;;;;5073158;28;20270;-64
2023/04/12 02:09:10;;;;;;;;;;;;;;;;;;5064187;28;19920;-63
2023/04/12 02:11:36;;;;;;;;;;;;;;;;;;5073714;28;19924;-63
2023/04/12 02:14:02;;;;;;;;;;;;;;;;;;5072573;28;20258;-63
2023/04/12 02:16:28;;;;;;;;;;;;;;;;;;5073787;28;19924;-63
2023/04/12 02:18:56;;;;;;;;;;;;;;;;;;5076304;28;19920;-64
2023/04/12 02:21:22;;;;;;;;;;;;;;;;;;5083507;28;19950;-63
2023/04/12 02:23:47;;;;;;;;;;;;;;;;;;5092622;28;19928;-63
2023/04/12 02:26:13;;;;;;;;;;;;;;;;;;5094810;28;20404;-62
2023/04/12 02:28:39;;;;;;;;;;;;;;;;;;5088479;28;19921;-62
2023/04/12 02:31:05;;;;;;;;;;;;;;;;;;5065641;28;19961;-62
2023/04/12 02:33:32;;;;;;;;;;;;;;;;;;5094469;28;19977;-62
2023/04/12 02:35:58;;;;;;;;;;;;;;;;;;5068140;28;20285;-63
2023/04/12 02:38:24;;;;;;;;;;;;;;;;;;5075792;28;19921;-63
2023/04/12 02:40:50;;;;;;;;;;;;;;;;;;5062198;28;19933;-63
2023/04/12 02:43:16;;;;;;;;;;;;;;;;;;5071529;28;20289;-63
2023/04/12 02:45:41;;;;;;;;;;;;;;;;;;5093929;28;19931;-63
2023/04/12 02:48:07;;;;;;;;;;;;;;;;;;5094061;28;19923;-63
2023/04/12 02:50:33;;;;;;;;;;;;;;;;;;5056514;28;20443;-63
2023/04/12 02:52:59;;;;;;;;;;;;;;;;;;5086866;28;20069;-63
2023/04/12 02:55:25;;;;;;;;;;;;;;;;;;5071155;28;20725;-63
2023/04/12 02:57:52;;;;;;;;;;;;;;;;;;5093589;28;20082;-63
2023/04/12 03:00:18;;;;;;;;;;;;;;;;;;5084463;28;19921;-64
2023/04/12 03:02:44;;;;;;;;;;;;;;;;;;5093669;28;19973;-63
2023/04/12 03:05:11;;;;;;;;;;;;;;;;;;5088418;28;19928;-63
2023/04/12 03:07:37;;;;;;;;;;;;;;;;;;5091433;28;20023;-63
2023/04/12 03:10:06;;;;;;;;;;;;;;;;;;5093010;28;19920;-63
2023/04/12 03:12:31;;;;;;;;;;;;;;;;;;5085157;28;19920;-63
2023/04/12 03:14:57;;;;;;;;;;;;;;;;;;5093754;28;19978;-63
2023/04/12 03:17:23;;;;;;;;;;;;;;;;;;5093055;28;19920;-63
2023/04/12 03:19:50;;;;;;;;;;;;;;;;;;5057354;28;20319;-63
2023/04/12 03:22:15;;;;;;;;;;;;;;;;;;5092334;28;19931;-62
2023/04/12 03:24:44;;;;;;;;;;;;;;;;;;5073333;28;19925;-63
2023/04/12 03:27:10;;;;;;;;;;;;;;;;;;5076063;28;19959;-63
2023/04/12 03:29:36;;;;;;;;;;;;;;;;;;5070008;28;20396;-63
2023/04/12 03:32:02;;;;;;;;;;;;;;;;;;5091917;28;20007;-63
2023/04/12 03:34:31;;;;;;;;;;;;;;;;;;5084104;28;19984;-63
2023/04/12 03:36:57;;;;;;;;;;;;;;;;;;5093370;28;19928;-63
2023/04/12 03:39:23;;;;;;;;;;;;;;;;;;5092674;28;20362;-63
2023/04/12 03:41:49;;;;;;;;;;;;;;;;;;5078995;28;19924;-63
2023/04/12 03:44:15;;;;;;;;;;;;;;;;;;5090200;28;19935;-63
2023/04/12 03:46:41;;;;;;;;;;;;;;;;;;5085456;28;19921;-64
2023/04/12 03:49:07;;;;;;;;;;;;;;;;;;5082998;28;19935;-63
2023/04/12 03:51:33;;;;;;;;;;;;;;;;;;5077056;28;19921;-64
2023/04/12 03:54:01;;;;;;;;;;;;;;;;;;5081643;28;19943;-64
2023/04/12 03:56:27;;;;;;;;;;;;;;;;;;5081295;28;19924;-64
2023/04/12 03:58:53;;;;;;;;;;;;;;;;;;5085777;28;19966;-64
2023/04/12 04:01:20;;;;;;;;;;;;;;;;;;5080013;28;19920;-62
2023/04/12 04:03:46;;;;;;;;;;;;;;;;;;5085781;28;20313;-63
2023/04/12 04:06:12;;;;;;;;;;;;;;;;;;5082547;28;20660;-63
2023/04/12 04:08:38;;;;;;;;;;;;;;;;;;5092289;28;20023;-63
2023/04/12 04:11:04;;;;;;;;;;;;;;;;;;5091600;28;19927;-63
2023/04/12 04:13:30;;;;;;;;;;;;;;;;;;5084151;28;19928;-62
2023/04/12 04:15:56;;;;;;;;;;;;;;;;;;5080146;28;19920;-63
2023/04/12 04:18:22;;;;;;;;;;;;;;;;;;5090044;28;20285;-63
2023/04/12 04:20:48;;;;;;;;;;;;;;;;;;5049916;28;19925;-63
2023/04/12 04:23:14;;;;;;;;;;;;;;;;;;5081560;28;20002;-63
2023/04/12 04:25:40;;;;;;;;;;;;;;;;;;5090820;28;19943;-63
2023/04/12 04:28:06;;;;;;;;;;;;;;;;;;5090312;28;19943;-62
2023/04/12 04:30:33;;;;;;;;;;;;;;;;;;5091936;28;19970;-63
2023/04/12 04:32:58;;;;;;;;;;;;;;;;;;5091614;28;20274;-62
2023/04/12 04:35:24;;;;;;;;;;;;;;;;;;5086916;28;19921;-63
2023/04/12 04:37:51;;;;;;;;;;;;;;;;;;5073618;28;19923;-62
2023/04/12 04:40:18;;;;;;;;;;;;;;;;;;5083494;28;20348;-62
2023/04/12 04:42:45;;;;;;;;;;;;;;;;;;5090090;28;19965;-62
2023/04/12 04:45:14;;;;;;;;;;;;;;;;;;5089957;28;19928;-62
2023/04/12 04:47:40;;;;;;;;;;;;;;;;;;5091095;28;19982;-63
2023/04/12 04:50:06;;;;;;;;;;;;;;;;;;5097876;28;19924;-62
2023/04/12 04:52:32;;;;;;;;;;;;;;;;;;5100131;28;19946;-62
2023/04/12 04:54:58;;;;;;;;;;;;;;;;;;5082338;28;20412;-62
2023/04/12 04:57:25;;;;;;;;;;;;;;;;;;5089962;28;19924;-62
2023/04/12 04:59:51;;;;;;;;;;;;;;;;;;5089173;28;20427;-63
2023/04/12 05:02:17;;;;;;;;;;;;;;;;;;5082933;28;19924;-62
2023/04/12 05:04:43;;;;;;;;;;;;;;;;;;5081180;28;19951;-62
2023/04/12 05:07:09;;;;;;;;;;;;;;;;;;5058516;28;19932;-62
2023/04/12 05:09:35;;;;;;;;;;;;;;;;;;5076722;28;19920;-62
2023/04/12 05:12:01;;;;;;;;;;;;;;;;;;5075712;28;19951;-62
2023/04/12 05:14:28;;;;;;;;;;;;;;;;;;5075784;28;19924;-63
2023/04/12 05:16:54;;;;;;;;;;;;;;;;;;5087304;28;19973;-63
2023/04/12 05:19:20;;;;;;;;;;;;;;;;;;5092387;28;19924;-63
2023/04/12 05:21:46;;;;;;;;;;;;;;;;;;5095820;28;19928;-61
2023/04/12 05:24:12;;;;;;;;;;;;;;;;;;5096005;28;20425;-61
2023/04/12 05:26:38;;;;;;;;;;;;;;;;;;5058051;28;20017;-61
2023/04/12 05:29:05;;;;;;;;;;;;;;;;;;5075907;28;19921;-61
2023/04/12 05:31:31;;;;;;;;;;;;;;;;;;5075555;28;20323;-62
2023/04/12 05:33:57;;;;;;;;;;;;;;;;;;5075519;28;19925;-62
2023/04/12 05:36:22;;;;;;;;;;;;;;;;;;5075442;28;19930;-61
2023/04/12 05:38:48;;;;;;;;;;;;;;;;;;5075098;28;19921;-61
2023/04/12 05:41:16;;;;;;;;;;;;;;;;;;5091427;28;19935;-61
2023/04/12 05:43:42;;;;;;;;;;;;;;;;;;5094543;28;19966;-62
2023/04/12 05:46:08;;;;;;;;;;;;;;;;;;5090424;28;19920;-62
2023/04/12 05:48:33;;;;;;;;;;;;;;;;;;5085412;28;20365;-63
2023/04/12 05:50:59;;;;;;;;;;;;;;;;;;5086084;28;19931;-62
2023/04/12 05:53:28;;;;;;;;;;;;;;;;;;5070872;28;20085;-63
2023/04/12 05:55:54;;;;;;;;;;;;;;;;;;5069482;28;20369;-63
2023/04/12 05:58:20;;;;;;;;;;;;;;;;;;5074593;28;19966;-63
2023/04/12 06:00:46;;;;;;;;;;;;;;;;;;5067235;28;19920;-62
2023/04/12 06:03:12;;;;;;;;;;;;;;;;;;5081271;28;19921;-63
2023/04/12 06:05:37;;;;;;;;;;;;;;;;;;5093486;28;20332;-62
2023/04/12 06:08:07;;;;;;;;;;;;;;;;;;5087633;28;20449;-62
2023/04/12 06:10:33;;;;;;;;;;;;;;;;;;5091068;28;19920;-62
2023/04/12 06:12:59;;;;;;;;;;;;;;;;;;5095004;28;19948;-62
2023/04/12 06:15:25;;;;;;;;;;;;;;;;;;5093432;28;20501;-62
2023/04/12 06:17:51;;;;;;;;;;;;;;;;;;5091696;28;20602;-62
2023/04/12 06:20:16;;;;;;;;;;;;;;;;;;5073347;28;19928;-62
2023/04/12 06:22:42;;;;;;;;;;;;;;;;;;5086868;28;20342;-62
2023/04/12 06:25:08;;;;;;;;;;;;;;;;;;5093975;28;19924;-62
2023/04/12 06:27:34;;;;;;;;;;;;;;;;;;5090078;28;19920;-62
2023/04/12 06:30:00;;;;;;;;;;;;;;;;;;5093649;28;19971;-62
2023/04/12 06:32:26;;;;;;;;;;;;;;;;;;5092286;28;19920;-62
2023/04/12 06:34:52;;;;;;;;;;;;;;;;;;5077829;28;20297;-62
2023/04/12 06:37:18;;;;;;;;;;;;;;;;;;5065213;28;19975;-62
2023/04/12 06:39:44;;;;;;;;;;;;;;;;;;5089696;28;20374;-62
2023/04/12 06:42:10;;;;;;;;;;;;;;;;;;5076189;28;19935;-62
2023/04/12 06:44:35;;;;;;;;;;;;;;;;;;5094024;28;19924;-62
2023/04/12 06:47:01;;;;;;;;;;;;;;;;;;5092982;28;19920;-62
2023/04/12 06:49:27;;;;;;;;;;;;;;;;;;5074020;28;19975;-61
2023/04/12 06:51:53;;;;;;;;;;;;;;;;;;5092788;28;19997;-62
2023/04/12 06:54:19;;;;;;;;;;;;;;;;;;5092419;28;19966;-62
2023/04/12 06:56:45;;;;;;;;;;;;;;;;;;5092983;28;19920;-62
2023/04/12 06:59:11;;;;;;;;;;;;;;;;;;5092899;28;20316;-62
2023/04/12 07:01:37;;;;;;;;;;;;;;;;;;5092637;28;19931;-62
2023/04/12 07:04:03;;;;;;;;;;;;;;;;;;5092212;28;19924;-62
2023/04/12 07:06:29;;;;;;;;;;;;;;;;;;5094068;28;19928;-62
2023/04/12 07:08:55;;;;;;;;;;;;;;;;;;5092644;28;19939;-62
2023/04/12 07:11:21;;;;;;;;;;;;;;;;;;5074528;28;20360;-62
2023/04/12 07:13:47;;;;;;;;;;;;;;;;;;5074559;28;19930;-61
2023/04/12 07:16:13;;;;;;;;;;;;;;;;;;5072979;28;19920;-61
2023/04/12 07:18:39;;;;;;;;;;;;;;;;;;5074199;28;20286;-62
2023/04/12 07:21:05;;;;;;;;;;;;;;;;;;5073160;28;19925;-61
2023/04/12 07:23:31;;;;;;;;;;;;;;;;;;5083833;28;19962;-62
2023/04/12 07:25:57;;;;;;;;;;;;;;;;;;5085699;28;19959;-62
2023/04/12 07:28:22;;;;;;;;;;;;;;;;;;5093677;28;20015;-62
2023/04/12 07:30:48;;;;;;;;;;;;;;;;;;5097747;28;19920;-61
2023/04/12 07:33:14;;;;;;;;;;;;;;;;;;5093160;28;19920;-61
2023/04/12 07:35:40;;;;;;;;;;;;;;;;;;5098121;28;20407;-62
2023/04/12 07:38:06;;;;;;;;;;;;;;;;;;5092807;28;19931;-62
2023/04/12 07:40:32;;;;;;;;;;;;;;;;;;5093391;28;19920;-61
2023/04/12 07:42:58;;;;;;;;;;;;;;;;;;5074904;28;19955;-61
2023/04/12 07:45:24;;;;;;;;;;;;;;;;;;5091739;28;19924;-61
2023/04/12 07:47:50;;;;;;;;;;;;;;;;;;5095738;28;19925;-61
2023/04/12 07:50:16;;;;;;;;;;;;;;;;;;5085284;28;19967;-61
2023/04/12 07:52:42;;;;;;;;;;;;;;;;;;5060391;28;19927;-61
2023/04/12 07:55:09;;;;;;;;;;;;;;;;;;5096810;28;19936;-61
2023/04/12 07:57:34;;;;;;;;;;;;;;;;;;5057479;28;19947;-59
2023/04/12 08:00:00;;;;;;;;;;;;;;;;;;5091563;28;19919;-59
2023/04/12 08:02:26;;;;;;;;;;;;;;;;;;5092677;28;20372;-60
2023/04/12 08:04:52;;;;;;;;;;;;;;;;;;5077450;28;19931;-60
2023/04/12 08:07:18;;;;;;;;;;;;;;;;;;5061299;28;19920;-61
2023/04/12 08:09:44;;;;;;;;;;;;;;;;;;5074479;28;20380;-61
2023/04/12 08:12:10;;;;;;;;;;;;;;;;;;5092319;28;20599;-61
2023/04/12 08:14:36;;;;;;;;;;;;;;;;;;5092624;28;19977;-60
2023/04/12 08:17:02;;;;;;;;;;;;;;;;;;5092146;28;20431;-60
2023/04/12 08:19:28;;;;;;;;;;;;;;;;;;5088343;28;19924;-60
2023/04/12 08:21:54;;;;;;;;;;;;;;;;;;5055242;28;20390;-60
2023/04/12 08:24:20;;;;;;;;;;;;;;;;;;5079638;28;19931;-61
2023/04/12 08:26:45;;;;;;;;;;;;;;;;;;5090448;28;20419;-61
2023/04/12 08:29:11;;;;;;;;;;;;;;;;;;5074314;28;19968;-61
2023/04/12 08:31:37;;;;;;;;;;;;;;;;;;5091741;28;19928;-60
2023/04/12 08:34:03;;;;;;;;;;;;;;;;;;5091715;28;19924;-60
2023/04/12 08:36:29;;;;;;;;;;;;;;;;;;5090619;28;19966;-60
2023/04/12 08:38:55;;;;;;;;;;;;;;;;;;5091956;28;20422;-60
2023/04/12 08:41:21;;;;;;;;;;;;;;;;;;5069914;28;19939;-60
2023/04/12 08:43:47;;;;;;;;;;;;;;;;;;5092111;28;20002;-60
2023/04/12 08:46:14;;;;;;;;;;;;;;;;;;5070122;28;19931;-60
2023/04/12 08:48:42;;;;;;;;;;;;;;;;;;5092497;28;19931;-60
2023/04/12 08:51:08;;;;;;;;;;;;;;;;;;5081625;28;19978;-61
2023/04/12 08:53:33;;;;;;;;;;;;;;;;;;5086977;28;20365;-60
2023/04/12 08:55:59;;;;;;;;;;;;;;;;;;5079469;28;19927;-60
2023/04/12 08:58:25;;;;;;;;;;;;;;;;;;5067339;28;19935;-60
2023/04/12 09:00:51;;;;;;;;;;;;;;;;;;5090153;28;20007;-61
2023/04/12 09:03:17;;;;;;;;;;;;;;;;;;5092990;28;20069;-61
2023/04/12 09:05:43;;;;;;;;;;;;;;;;;;5089343;28;20362;-61
2023/04/12 09:08:10;;;;;;;;;;;;;;;;;;5072762;28;19936;-60
2023/04/12 09:10:37;;;;;;;;;;;;;;;;;;5071791;28;19978;-60
2023/04/12 09:13:02;;;;;;;;;;;;;;;;;;5091151;28;19941;-60
2023/04/12 09:15:29;;;;;;;;;;;;;;;;;;5068767;28;19928;-60
2023/04/12 09:17:55;;;;;;;;;;;;;;;;;;5099014;28;20349;-60
2023/04/12 09:20:22;;;;;;;;;;;;;;;;;;5099574;28;19944;-60
2023/04/12 09:22:48;;;;;;;;;;;;;;;;;;5091541;28;20007;-60
2023/04/12 09:25:14;;;;;;;;;;;;;;;;;;5090991;28;19939;-60
2023/04/12 09:27:40;;;;;;;;;;;;;;;;;;5090133;28;19924;-60
2023/04/12 09:30:06;;;;;;;;;;;;;;;;;;5090279;28;19928;-60
2023/04/12 09:32:32;;;;;;;;;;;;;;;;;;5091821;28;20024;-60
2023/04/12 09:35:01;;;;;;;;;;;;;;;;;;5094794;28;20058;-60
2023/04/12 09:37:27;;;;;;;;;;;;;;;;;;5093037;28;19928;-60
2023/04/12 09:39:52;;;;;;;;;;;;;;;;;;5092202;28;19931;-60
2023/04/12 09:42:18;;;;;;;;;;;;;;;;;;5091983;28;19924;-60
2023/04/12 09:44:44;;;;;;;;;;;;;;;;;;5085054;28;20301;-61
2023/04/12 09:47:10;;;;;;;;;;;;;;;;;;5091060;28;19924;-60
2023/04/12 09:49:37;;;;;;;;;;;;;;;;;;5094367;28;20007;-62
2023/04/12 09:52:03;;;;;;;;;;;;;;;;;;5061939;28;19924;-62
2023/04/12 09:54:29;;;;;;;;;;;;;;;;;;5092832;28;19924;-63
2023/04/12 09:56:56;;;;;;;;;;;;;;;;;;5092791;28;19920;-63
2023/04/12 09:59:22;;;;;;;;;;;;;;;;;;5089703;28;19927;-63
2023/04/12 10:01:48;;;;;;;;;;;;;;;;;;5091176;28;19973;-62
2023/04/12 10:04:13;;;;;;;;;;;;;;;;;;5092964;28;20373;-63
2023/04/12 10:06:40;;;;;;;;;;;;;;;;;;5090480;28;19928;-62
2023/04/12 10:09:07;;;;;;;;;;;;;;;;;;5092945;28;20353;-62
2023/04/12 10:11:33;;;;;;;;;;;;;;;;;;5076127;28;20371;-63
2023/04/12 10:13:59;;;;;;;;;;;;;;;;;;5090525;28;19924;-63
2023/04/12 10:16:25;;;;;;;;;;;;;;;;;;5090610;28;19934;-63
2023/04/12 10:18:51;;;;;;;;;;;;;;;;;;5092981;28;19920;-63
2023/04/12 10:21:17;;;;;;;;;;;;;;;;;;5093027;28;19928;-63
2023/04/12 10:23:43;;;;;;;;;;;;;;;;;;5090890;28;19949;-63
2023/04/12 10:26:10;;;;;;;;;;;;;;;;;;5074717;28;19920;-63
2023/04/12 10:28:35;;;;;;;;;;;;;;;;;;5094052;28;19920;-63
2023/04/12 10:31:01;;;;;;;;;;;;;;;;;;5092289;28;20022;-63
2023/04/12 10:33:27;;;;;;;;;;;;;;;;;;5063732;28;19924;-63
2023/04/12 10:35:53;;;;;;;;;;;;;;;;;;5075534;28;19920;-63
2023/04/12 10:38:19;;;;;;;;;;;;;;;;;;5092581;28;19928;-63
2023/04/12 10:40:45;;;;;;;;;;;;;;;;;;5098675;28;19998;-63
2023/04/12 10:43:11;;;;;;;;;;;;;;;;;;5113103;28;19920;-63
2023/04/12 10:45:37;;;;;;;;;;;;;;;;;;5074498;28;20435;-63
2023/04/12 10:48:05;;;;;;;;;;;;;;;;;;5075376;28;19924;-63
2023/04/12 10:50:31;;;;;;;;;;;;;;;;;;5085685;28;19934;-64
2023/04/12 10:52:57;;;;;;;;;;;;;;;;;;5075255;28;19924;-63
2023/04/12 10:55:23;;;;;;;;;;;;;;;;;;5087923;28;19920;-63
2023/04/12 10:57:52;;;;;;;;;;;;;;;;;;5078874;28;19920;-63
2023/04/12 11:00:19;;;;;;;;;;;;;;;;;;5085301;28;19924;-64
2023/04/12 11:02:45;;;;;;;;;;;;;;;;;;5083994;28;20357;-64
2023/04/12 11:05:13;;;;;;;;;;;;;;;;;;5090584;28;19924;-63
2023/04/12 11:07:39;;;;;;;;;;;;;;;;;;5046758;28;20430;-64
2023/04/12 11:10:07;;;;;;;;;;;;;;;;;;5067071;28;22571;-64
2023/04/12 11:12:33;;;;;;;;;;;;;;;;;;5072998;28;19931;-63
2023/04/12 11:15:03;;;;;;;;;;;;;;;;;;5052022;28;19920;-64
2023/04/12 11:17:29;;;;;;;;;;;;;;;;;;5092452;28;19942;-65
2023/04/12 11:19:55;;;;;;;;;;;;;;;;;;5085345;28;20416;-63
2023/04/12 11:22:21;;;;;;;;;;;;;;;;;;5092254;28;19927;-63
2023/04/12 11:24:47;;;;;;;;;;;;;;;;;;5090947;28;19932;-63
2023/04/12 11:27:15;;;;;;;;;;;;;;;;;;5087326;28;19924;-64
2023/04/12 11:29:42;;;;;;;;;;;;;;;;;;5090991;28;20331;-63
2023/04/12 11:32:07;;;;;;;;;;;;;;;;;;5086280;28;19935;-63
2023/04/12 11:34:33;;;;;;;;;;;;;;;;;;5035745;22;1735695;-61
2023/04/12 11:36:59;;;;;;;;;;;;;;;;;;5064174;28;19924;-61
2023/04/12 11:39:26;;;;;;;;;;;;;;;;;;5065480;28;21150;-61
2023/04/12 11:41:51;;;;;;;;;;;;;;;;;;5090329;28;19965;-61
2023/04/12 11:44:18;;;;;;;;;;;;;;;;;;5057211;28;19924;-61
2023/04/12 11:46:44;;;;;;;;;;;;;;;;;;5079965;28;20005;-61
2023/04/12 11:49:10;;;;;;;;;;;;;;;;;;5091452;28;19927;-61
2023/04/12 11:51:36;;;;;;;;;;;;;;;;;;5084936;28;20492;-61
2023/04/12 11:54:03;;;;;;;;;;;;;;;;;;5081912;28;19971;-61
2023/04/12 11:56:30;;;;;;;;;;;;;;;;;;5074490;28;19924;-61
2023/04/12 11:58:56;;;;;;;;;;;;;;;;;;5078150;28;20292;-61
2023/04/12 12:01:22;;;;;;;;;;;;;;;;;;5092653;28;19930;-61
2023/04/12 12:03:48;;;;;;;;;;;;;;;;;;5092527;28;20015;-61
2023/04/12 12:06:14;;;;;;;;;;;;;;;;;;5091573;28;20365;-61
2023/04/12 12:08:40;;;;;;;;;;;;;;;;;;5065047;28;19927;-61
2023/04/12 12:11:06;;;;;;;;;;;;;;;;;;5073299;28;20343;-61
2023/04/12 12:13:31;;;;;;;;;;;;;;;;;;5073062;28;19920;-61
2023/04/12 12:15:57;;;;;;;;;;;;;;;;;;5086753;28;19931;-61
2023/04/12 12:18:23;;;;;;;;;;;;;;;;;;5090004;28;19962;-62
2023/04/12 12:20:49;;;;;;;;;;;;;;;;;;5092801;28;20281;-61
2023/04/12 12:23:15;;;;;;;;;;;;;;;;;;5092419;28;19920;-61
2023/04/12 12:25:41;;;;;;;;;;;;;;;;;;5065244;28;19931;-61
2023/04/12 12:28:07;;;;;;;;;;;;;;;;;;5081156;28;19926;-61
2023/04/12 12:30:33;;;;;;;;;;;;;;;;;;5080721;28;19942;-61
2023/04/12 12:32:59;;;;;;;;;;;;;;;;;;5090871;28;19924;-61
2023/04/12 12:35:26;;;;;;;;;;;;;;;;;;5071793;28;19935;-61
2023/04/12 12:37:52;;;;;;;;;;;;;;;;;;5085216;28;19927;-61
2023/04/12 12:40:20;;;;;;;;;;;;;;;;;;5085143;28;19924;-61
2023/04/12 12:42:46;;;;;;;;;;;;;;;;;;5080938;28;19924;-62
2023/04/12 12:45:12;;;;;;;;;;;;;;;;;;5087080;28;19928;-62
2023/04/12 12:47:38;;;;;;;;;;;;;;;;;;5090284;28;19920;-62
2023/04/12 12:50:04;;;;;;;;;;;;;;;;;;5092156;28;19927;-62
2023/04/12 12:52:30;;;;;;;;;;;;;;;;;;5090569;28;19924;-62
2023/04/12 12:54:56;;;;;;;;;;;;;;;;;;5082985;28;19920;-62
2023/04/12 12:57:22;;;;;;;;;;;;;;;;;;5062289;28;19924;-62
2023/04/12 12:59:48;;;;;;;;;;;;;;;;;;5082116;28;19966;-62
2023/04/12 13:02:16;;;;;;;;;;;;;;;;;;5053908;28;19924;-62
2023/04/12 13:04:42;;;;;;;;;;;;;;;;;;5087469;28;19969;-62
2023/04/12 13:07:08;;;;;;;;;;;;;;;;;;5093497;28;20319;-62
2023/04/12 13:09:34;;;;;;;;;;;;;;;;;;5084157;28;19946;-62
2023/04/12 13:12:01;;;;;;;;;;;;;;;;;;5083634;28;20325;-62
2023/04/12 13:14:26;;;;;;;;;;;;;;;;;;5083954;28;19920;-61
2023/04/12 13:16:52;;;;;;;;;;;;;;;;;;5072321;28;19947;-62
2023/04/12 13:19:18;;;;;;;;;;;;;;;;;;5086184;28;19981;-62
2023/04/12 13:21:44;;;;;;;;;;;;;;;;;;5093298;28;19924;-61
2023/04/12 13:24:10;;;;;;;;;;;;;;;;;;5089487;28;19924;-61
2023/04/12 13:26:36;;;;;;;;;;;;;;;;;;5088247;28;19927;-62
2023/04/12 13:29:02;;;;;;;;;;;;;;;;;;5066413;28;21709;-62
2023/04/12 13:31:28;;;;;;;;;;;;;;;;;;5091457;28;19924;-62
2023/04/12 13:33:54;;;;;;;;;;;;;;;;;;5089737;28;19924;-62
2023/04/12 13:36:20;;;;;;;;;;;;;;;;;;5092628;28;20324;-62
2023/04/12 13:38:46;;;;;;;;;;;;;;;;;;5094145;28;19920;-62
2023/04/12 13:41:12;;;;;;;;;;;;;;;;;;5070135;28;20383;-62
2023/04/12 13:43:38;;;;;;;;;;;;;;;;;;5092048;28;20010;-62
2023/04/12 13:46:04;;;;;;;;;;;;;;;;;;5086391;28;20070;-62
2023/04/12 13:48:30;;;;;;;;;;;;;;;;;;5086212;28;20331;-62
2023/04/12 13:50:56;;;;;;;;;;;;;;;;;;5093112;28;19920;-62
2023/04/12 13:53:21;;;;;;;;;;;;;;;;;;5088998;28;19925;-62
2023/04/12 13:55:48;;;;;;;;;;;;;;;;;;5084235;28;20636;-62
2023/04/12 13:58:15;;;;;;;;;;;;;;;;;;5084123;28;19927;-62
2023/04/12 14:00:41;;;;;;;;;;;;;;;;;;5068791;28;19965;-62
2023/04/12 14:03:07;;;;;;;;;;;;;;;;;;5093352;28;19931;-62
2023/04/12 14:05:33;;;;;;;;;;;;;;;;;;5092392;28;19924;-61
2023/04/12 14:07:59;;;;;;;;;;;;;;;;;;5091763;28;19920;-62
2023/04/12 14:10:25;;;;;;;;;;;;;;;;;;5085100;28;19959;-62
2023/04/12 14:12:51;;;;;;;;;;;;;;;;;;5074868;28;19924;-63
2023/04/12 14:15:16;;;;;;;;;;;;;;;;;;5069663;28;19920;-62
2023/04/12 14:17:42;;;;;;;;;;;;;;;;;;5091873;28;20007;-62
2023/04/12 14:20:12;;;;;;;;;;;;;;;;;;5092336;28;20010;-62
2023/04/12 14:22:38;;;;;;;;;;;;;;;;;;5094085;28;19970;-62
2023/04/12 14:25:04;;;;;;;;;;;;;;;;;;5094019;28;20353;-61
2023/04/12 14:27:30;;;;;;;;;;;;;;;;;;5090787;28;19928;-62
2023/04/12 14:29:56;;;;;;;;;;;;;;;;;;5088603;28;20389;-62
2023/04/12 14:32:22;;;;;;;;;;;;;;;;;;5071124;28;19969;-62
2023/04/12 14:34:48;;;;;;;;;;;;;;;;;;5065297;28;19955;-62
2023/04/12 14:37:15;;;;;;;;;;;;;;;;;;5069460;28;19925;-62
2023/04/12 14:39:41;;;;;;;;;;;;;;;;;;5071269;28;19927;-62
2023/04/12 14:42:07;;;;;;;;;;;;;;;;;;5071898;28;20428;-62
2023/04/12 14:44:33;;;;;;;;;;;;;;;;;;5067341;28;20023;-62
2023/04/12 14:46:59;;;;;;;;;;;;;;;;;;5069094;28;20417;-62
2023/04/12 14:49:24;;;;;;;;;;;;;;;;;;5071716;28;19928;-62
2023/04/12 14:51:50;;;;;;;;;;;;;;;;;;5071347;28;19967;-62
2023/04/12 14:54:16;;;;;;;;;;;;;;;;;;5068044;28;19993;-62
2023/04/12 14:56:42;;;;;;;;;;;;;;;;;;5070212;28;19920;-62
2023/04/12 14:59:08;;;;;;;;;;;;;;;;;;5071736;28;19924;-62
2023/04/12 15:01:36;;;;;;;;;;;;;;;;;;5069651;28;19931;-62
2023/04/12 15:04:04;;;;;;;;;;;;;;;;;;5072104;28;19994;-62
2023/04/12 15:06:32;;;;;;;;;;;;;;;;;;5071323;28;19968;-62
2023/04/12 15:08:58;;;;;;;;;;;;;;;;;;5057039;28;19952;-62
2023/04/12 15:11:25;;;;;;;;;;;;;;;;;;5061035;28;19924;-62
2023/04/12 15:13:52;;;;;;;;;;;;;;;;;;5071008;28;19920;-62
2023/04/12 15:16:18;;;;;;;;;;;;;;;;;;5068682;28;19931;-62
2023/04/12 15:18:44;;;;;;;;;;;;;;;;;;5071089;28;19920;-62
2023/04/12 15:21:10;;;;;;;;;;;;;;;;;;5072524;28;19920;-62
2023/04/12 15:23:36;;;;;;;;;;;;;;;;;;5064800;28;20484;-62
2023/04/12 15:26:02;;;;;;;;;;;;;;;;;;5060061;28;20023;-62
2023/04/12 15:28:28;;;;;;;;;;;;;;;;;;5067143;28;19924;-62
2023/04/12 15:30:54;;;;;;;;;;;;;;;;;;5064150;28;19921;-62
2023/04/12 15:33:20;;;;;;;;;;;;;;;;;;5063955;28;19985;-62
2023/04/12 15:35:46;;;;;;;;;;;;;;;;;;5082875;28;19947;-62
2023/04/12 15:38:12;;;;;;;;;;;;;;;;;;5081980;28;20377;-62
2023/04/12 15:40:38;;;;;;;;;;;;;;;;;;5090020;28;19928;-62
2023/04/12 15:43:04;;;;;;;;;;;;;;;;;;5072483;28;19924;-62
2023/04/12 15:45:30;;;;;;;;;;;;;;;;;;5091220;28;19923;-62
2023/04/12 15:47:58;;;;;;;;;;;;;;;;;;5091578;28;19920;-62
2023/04/12 15:50:24;;;;;;;;;;;;;;;;;;5088713;28;19928;-63
2023/04/12 15:52:50;;;;;;;;;;;;;;;;;;5083733;28;19924;-62
2023/04/12 15:55:18;;;;;;;;;;;;;;;;;;5089393;28;19931;-62
2023/04/12 15:57:44;;;;;;;;;;;;;;;;;;5084114;28;19920;-62
2023/04/12 16:00:21;;;;;;;;;;;;;;;;;;5090572;28;20002;-62
2023/04/12 16:02:48;;;;;;;;;;;;;;;;;;5083711;28;19920;-62
2023/04/12 16:05:14;;;;;;;;;;;;;;;;;;5071781;28;19924;-63
2023/04/12 16:07:40;;;;;;;;;;;;;;;;;;5064040;28;19920;-63
2023/04/12 16:10:07;;;;;;;;;;;;;;;;;;5084705;28;19983;-63
2023/04/12 16:12:33;;;;;;;;;;;;;;;;;;5080232;28;19923;-63
2023/04/12 16:14:59;;;;;;;;;;;;;;;;;;5067031;28;19928;-62
2023/04/12 16:17:25;;;;;;;;;;;;;;;;;;5089601;28;19920;-62
2023/04/12 16:19:51;;;;;;;;;;;;;;;;;;5087797;28;19970;-62
2023/04/12 16:22:17;;;;;;;;;;;;;;;;;;5092195;28;19920;-62
2023/04/12 16:24:43;;;;;;;;;;;;;;;;;;5066226;28;20405;-62
2023/04/12 16:27:09;;;;;;;;;;;;;;;;;;5092185;28;19959;-63
2023/04/12 16:29:35;;;;;;;;;;;;;;;;;;5091105;28;19955;-62
2023/04/12 16:32:01;;;;;;;;;;;;;;;;;;5091116;28;19959;-62
2023/04/12 16:34:27;;;;;;;;;;;;;;;;;;5090260;28;19959;-62
2023/04/12 16:36:53;;;;;;;;;;;;;;;;;;5089932;28;20007;-62